Mascotte, Florida
Current Conditions -  °F | °C
As of 7:53 PM on Monday 20 Oct 2014 (Local Time) from KLEE Reporting Station
Scattered Clouds Scattered Clouds  
Wind Chill: 76°   Ceiling: Unl
Heat Index: 76°   Visibility: 10mi
Dew Point: 67°   Wind: 9mph
Humidity: 74%   Direction: 70°ENE
Pressure: 29.98"   Gusts: NA
Location:  28.58°N, 81.89°W
Report Text: KLEE 202353Z AUTO 07008KT 10SM SCT070 24/19 A2998 RMK AO2 SLP151 T02440194 10294 20228 53005
Loading
Personal Weather Stations






























Interactive Weather Map
Tropical Storm Tracking
New forecast layout! Learn more

10-Day Weather Forecast

Advertisements
Track Severe Weather on mobile